Terminal Aerodrome Forecast
Issued by NWS St Louis, MO

Home | Current Version | Previous Version | Text Only | Print | Product List | Glossary On
Versions: 1 2 3 4 5 6 7 8 9 10 11 12 13 14 15 16 17 18 19 20 21 22 23 24 25 26
300
FTUS43 KLSX 110126 AAA
TAFSTL
TAF AMD
KSTL 110126Z 1101/1206 VRB04KT 6SM -SN OVC050
     FM110300 09005KT P6SM OVC040
     FM111800 04005KT P6SM SCT200=

USA.gov is the U.S. government's official web portal to all federal, state and local government web resources and services.